sensor_id;sensor_type;location;lat;lon;timestamp;temperature;humidity
3548;DHT22;1788;49.400;11.092;2022-07-06T00:00:07;21.30;41.20
3548;DHT22;1788;49.400;11.092;2022-07-06T00:02:33;21.30;41.30
3548;DHT22;1788;49.400;11.092;2022-07-06T00:05:00;21.30;41.40
3548;DHT22;1788;49.400;11.092;2022-07-06T00:07:27;21.30;41.60
3548;DHT22;1788;49.400;11.092;2022-07-06T00:09:54;21.30;42.20
3548;DHT22;1788;49.400;11.092;2022-07-06T00:12:21;21.30;41.70
3548;DHT22;1788;49.400;11.092;2022-07-06T00:14:48;21.30;41.70
3548;DHT22;1788;49.400;11.092;2022-07-06T00:17:14;21.20;41.80
3548;DHT22;1788;49.400;11.092;2022-07-06T00:19:42;21.20;42.00
3548;DHT22;1788;49.400;11.092;2022-07-06T00:22:08;21.20;42.00
3548;DHT22;1788;49.400;11.092;2022-07-06T00:24:35;21.30;42.10
3548;DHT22;1788;49.400;11.092;2022-07-06T00:27:02;21.30;41.60
3548;DHT22;1788;49.400;11.092;2022-07-06T00:29:28;21.30;42.10
3548;DHT22;1788;49.400;11.092;2022-07-06T00:31:55;21.30;42.10
3548;DHT22;1788;49.400;11.092;2022-07-06T00:34:22;21.30;42.10
3548;DHT22;1788;49.400;11.092;2022-07-06T00:36:49;21.30;42.10
3548;DHT22;1788;49.400;11.092;2022-07-06T00:39:17;21.30;42.20
3548;DHT22;1788;49.400;11.092;2022-07-06T00:41:44;21.30;42.20
3548;DHT22;1788;49.400;11.092;2022-07-06T00:44:10;21.30;42.20
3548;DHT22;1788;49.400;11.092;2022-07-06T00:46:37;21.30;42.30
3548;DHT22;1788;49.400;11.092;2022-07-06T00:49:04;21.30;42.30
3548;DHT22;1788;49.400;11.092;2022-07-06T00:51:32;21.30;42.50
3548;DHT22;1788;49.400;11.092;2022-07-06T00:53:58;21.30;42.50
3548;DHT22;1788;49.400;11.092;2022-07-06T00:56:25;21.20;42.60
3548;DHT22;1788;49.400;11.092;2022-07-06T00:58:51;21.20;42.60
3548;DHT22;1788;49.400;11.092;2022-07-06T01:01:20;21.20;43.30
3548;DHT22;1788;49.400;11.092;2022-07-06T01:03:46;21.20;42.70
3548;DHT22;1788;49.400;11.092;2022-07-06T01:06:13;21.10;42.70
3548;DHT22;1788;49.400;11.092;2022-07-06T01:08:40;21.10;42.90
3548;DHT22;1788;49.400;11.092;2022-07-06T01:11:07;21.10;42.90
3548;DHT22;1788;49.400;11.092;2022-07-06T01:13:34;21.00;43.60
3548;DHT22;1788;49.400;11.092;2022-07-06T01:16:01;21.00;43.00
3548;DHT22;1788;49.400;11.092;2022-07-06T01:18:28;21.00;43.20
3548;DHT22;1788;49.400;11.092;2022-07-06T01:23:21;20.90;43.30
3548;DHT22;1788;49.400;11.092;2022-07-06T01:25:48;20.90;43.30
3548;DHT22;1788;49.400;11.092;2022-07-06T01:28:14;20.90;43.40
3548;DHT22;1788;49.400;11.092;2022-07-06T01:30:42;20.90;43.50
3548;DHT22;1788;49.400;11.092;2022-07-06T01:33:08;20.90;43.50
3548;DHT22;1788;49.400;11.092;2022-07-06T01:35:35;20.90;43.50
3548;DHT22;1788;49.400;11.092;2022-07-06T01:38:02;20.90;43.50
3548;DHT22;1788;49.400;11.092;2022-07-06T01:40:28;20.90;43.60
3548;DHT22;1788;49.400;11.092;2022-07-06T01:42:55;20.90;43.60
3548;DHT22;1788;49.400;11.092;2022-07-06T01:45:22;20.80;43.80
3548;DHT22;1788;49.400;11.092;2022-07-06T01:47:49;20.80;43.80
3548;DHT22;1788;49.400;11.092;2022-07-06T01:50:16;20.80;43.90
3548;DHT22;1788;49.400;11.092;2022-07-06T01:52:43;20.80;43.90
3548;DHT22;1788;49.400;11.092;2022-07-06T01:55:10;20.80;43.90
3548;DHT22;1788;49.400;11.092;2022-07-06T01:57:37;20.80;43.90
3548;DHT22;1788;49.400;11.092;2022-07-06T02:00:05;20.80;43.90
3548;DHT22;1788;49.400;11.092;2022-07-06T02:02:30;20.80;43.90
3548;DHT22;1788;49.400;11.092;2022-07-06T02:04:57;20.80;43.90
3548;DHT22;1788;49.400;11.092;2022-07-06T02:07:24;20.80;44.10
3548;DHT22;1788;49.400;11.092;2022-07-06T02:09:51;20.80;44.00
3548;DHT22;1788;49.400;11.092;2022-07-06T02:12:17;20.80;44.00
3548;DHT22;1788;49.400;11.092;2022-07-06T02:14:44;20.80;43.90
3548;DHT22;1788;49.400;11.092;2022-07-06T02:17:11;20.90;44.00
3548;DHT22;1788;49.400;11.092;2022-07-06T02:19:37;20.90;44.00
3548;DHT22;1788;49.400;11.092;2022-07-06T02:22:04;20.90;44.00
3548;DHT22;1788;49.400;11.092;2022-07-06T02:24:30;20.90;44.10
3548;DHT22;1788;49.400;11.092;2022-07-06T02:26:57;20.90;44.20
3548;DHT22;1788;49.400;11.092;2022-07-06T02:29:24;20.90;45.00
3548;DHT22;1788;49.400;11.092;2022-07-06T02:31:51;20.90;44.40
3548;DHT22;1788;49.400;11.092;2022-07-06T02:34:18;20.90;44.50
3548;DHT22;1788;49.400;11.092;2022-07-06T02:36:44;20.90;44.50
3548;DHT22;1788;49.400;11.092;2022-07-06T02:39:11;20.90;44.60
3548;DHT22;1788;49.400;11.092;2022-07-06T02:41:38;20.80;44.70
3548;DHT22;1788;49.400;11.092;2022-07-06T02:44:05;20.80;44.70
3548;DHT22;1788;49.400;11.092;2022-07-06T02:46:31;20.70;44.70
3548;DHT22;1788;49.400;11.092;2022-07-06T02:48:58;20.70;44.90
3548;DHT22;1788;49.400;11.092;2022-07-06T02:51:25;20.70;45.00
3548;DHT22;1788;49.400;11.092;2022-07-06T02:53:51;20.60;45.10
3548;DHT22;1788;49.400;11.092;2022-07-06T02:56:18;20.60;45.30
3548;DHT22;1788;49.400;11.092;2022-07-06T02:58:45;20.60;45.40
3548;DHT22;1788;49.400;11.092;2022-07-06T03:01:11;20.50;45.40
3548;DHT22;1788;49.400;11.092;2022-07-06T03:03:38;20.40;45.60
3548;DHT22;1788;49.400;11.092;2022-07-06T03:06:05;20.40;45.60
3548;DHT22;1788;49.400;11.092;2022-07-06T03:08:32;20.40;45.80
3548;DHT22;1788;49.400;11.092;2022-07-06T03:10:59;20.40;45.80
3548;DHT22;1788;49.400;11.092;2022-07-06T03:13:26;20.30;45.80
3548;DHT22;1788;49.400;11.092;2022-07-06T03:15:52;20.30;45.90
3548;DHT22;1788;49.400;11.092;2022-07-06T03:18:19;20.20;45.90
3548;DHT22;1788;49.400;11.092;2022-07-06T03:20:46;20.10;46.10
3548;DHT22;1788;49.400;11.092;2022-07-06T03:23:13;20.10;46.10
3548;DHT22;1788;49.400;11.092;2022-07-06T03:25:40;20.00;46.80
3548;DHT22;1788;49.400;11.092;2022-07-06T03:28:07;20.00;46.30
3548;DHT22;1788;49.400;11.092;2022-07-06T03:30:34;20.00;46.60
3548;DHT22;1788;49.400;11.092;2022-07-06T03:33:01;20.00;46.60
3548;DHT22;1788;49.400;11.092;2022-07-06T03:35:28;19.90;46.60
3548;DHT22;1788;49.400;11.092;2022-07-06T03:37:54;19.90;46.70
3548;DHT22;1788;49.400;11.092;2022-07-06T03:40:21;19.90;46.80
3548;DHT22;1788;49.400;11.092;2022-07-06T03:42:47;19.90;46.90
3548;DHT22;1788;49.400;11.092;2022-07-06T03:45:14;19.80;47.00
3548;DHT22;1788;49.400;11.092;2022-07-06T03:47:41;19.80;47.00
3548;DHT22;1788;49.400;11.092;2022-07-06T03:50:07;19.80;47.20
3548;DHT22;1788;49.400;11.092;2022-07-06T03:52:35;19.80;47.40
3548;DHT22;1788;49.400;11.092;2022-07-06T03:55:01;19.80;47.40
3548;DHT22;1788;49.400;11.092;2022-07-06T03:57:28;19.80;47.40
3548;DHT22;1788;49.400;11.092;2022-07-06T03:59:54;19.80;47.50
3548;DHT22;1788;49.400;11.092;2022-07-06T04:02:21;19.80;47.60
3548;DHT22;1788;49.400;11.092;2022-07-06T04:04:48;19.80;47.70
3548;DHT22;1788;49.400;11.092;2022-07-06T04:07:14;19.80;47.80
3548;DHT22;1788;49.400;11.092;2022-07-06T04:09:41;19.80;47.70
3548;DHT22;1788;49.400;11.092;2022-07-06T04:12:07;19.70;47.70
3548;DHT22;1788;49.400;11.092;2022-07-06T04:14:35;19.70;47.80
3548;DHT22;1788;49.400;11.092;2022-07-06T04:17:02;19.70;47.80
3548;DHT22;1788;49.400;11.092;2022-07-06T04:19:28;19.70;47.80
3548;DHT22;1788;49.400;11.092;2022-07-06T04:21:55;19.80;48.00
3548;DHT22;1788;49.400;11.092;2022-07-06T04:24:21;19.90;48.00
3548;DHT22;1788;49.400;11.092;2022-07-06T04:26:49;20.10;48.10
3548;DHT22;1788;49.400;11.092;2022-07-06T04:29:15;20.10;48.00
3548;DHT22;1788;49.400;11.092;2022-07-06T04:31:43;20.20;48.30
3548;DHT22;1788;49.400;11.092;2022-07-06T04:34:09;20.20;47.80
3548;DHT22;1788;49.400;11.092;2022-07-06T04:36:36;20.30;47.70
3548;DHT22;1788;49.400;11.092;2022-07-06T04:39:02;20.30;47.60
3548;DHT22;1788;49.400;11.092;2022-07-06T04:41:29;20.40;47.50
3548;DHT22;1788;49.400;11.092;2022-07-06T04:43:56;20.40;47.30
3548;DHT22;1788;49.400;11.092;2022-07-06T04:46:23;20.40;47.20
3548;DHT22;1788;49.400;11.092;2022-07-06T04:48:50;20.50;47.30
3548;DHT22;1788;49.400;11.092;2022-07-06T04:51:18;20.60;47.10
3548;DHT22;1788;49.400;11.092;2022-07-06T04:53:44;20.60;47.10
3548;DHT22;1788;49.400;11.092;2022-07-06T04:56:11;20.70;47.00
3548;DHT22;1788;49.400;11.092;2022-07-06T04:58:37;20.70;46.90
3548;DHT22;1788;49.400;11.092;2022-07-06T05:01:04;20.80;46.80
3548;DHT22;1788;49.400;11.092;2022-07-06T05:03:33;20.90;46.70
3548;DHT22;1788;49.400;11.092;2022-07-06T05:05:58;20.90;46.70
3548;DHT22;1788;49.400;11.092;2022-07-06T05:08:25;21.10;46.60
3548;DHT22;1788;49.400;11.092;2022-07-06T05:10:52;21.00;46.50
3548;DHT22;1788;49.400;11.092;2022-07-06T05:13:19;21.10;46.00
3548;DHT22;1788;49.400;11.092;2022-07-06T05:15:46;21.10;46.30
3548;DHT22;1788;49.400;11.092;2022-07-06T05:18:13;21.10;46.10
3548;DHT22;1788;49.400;11.092;2022-07-06T05:20:40;21.10;46.00
3548;DHT22;1788;49.400;11.092;2022-07-06T05:23:07;21.10;46.00
3548;DHT22;1788;49.400;11.092;2022-07-06T05:25:33;21.10;46.00
3548;DHT22;1788;49.400;11.092;2022-07-06T05:28:00;21.20;46.00
3548;DHT22;1788;49.400;11.092;2022-07-06T05:30:27;21.20;45.90
3548;DHT22;1788;49.400;11.092;2022-07-06T05:32:53;21.30;45.90
3548;DHT22;1788;49.400;11.092;2022-07-06T05:35:20;21.30;45.80
3548;DHT22;1788;49.400;11.092;2022-07-06T05:37:47;21.40;45.80
3548;DHT22;1788;49.400;11.092;2022-07-06T05:40:13;21.40;45.70
3548;DHT22;1788;49.400;11.092;2022-07-06T05:42:41;21.50;45.70
3548;DHT22;1788;49.400;11.092;2022-07-06T05:45:07;21.60;45.60
3548;DHT22;1788;49.400;11.092;2022-07-06T05:47:34;21.70;45.60
3548;DHT22;1788;49.400;11.092;2022-07-06T05:50:01;21.80;45.90
3548;DHT22;1788;49.400;11.092;2022-07-06T05:52:28;21.80;45.40
3548;DHT22;1788;49.400;11.092;2022-07-06T05:54:56;21.80;45.20
3548;DHT22;1788;49.400;11.092;2022-07-06T05:57:23;21.90;45.20
3548;DHT22;1788;49.400;11.092;2022-07-06T05:59:49;21.90;45.10
3548;DHT22;1788;49.400;11.092;2022-07-06T06:02:16;21.90;45.10
3548;DHT22;1788;49.400;11.092;2022-07-06T06:04:42;22.00;45.10
3548;DHT22;1788;49.400;11.092;2022-07-06T06:07:09;22.00;45.00
3548;DHT22;1788;49.400;11.092;2022-07-06T06:09:36;22.10;45.00
3548;DHT22;1788;49.400;11.092;2022-07-06T06:12:02;22.20;44.90
3548;DHT22;1788;49.400;11.092;2022-07-06T06:14:29;22.20;44.80
3548;DHT22;1788;49.400;11.092;2022-07-06T06:16:55;22.30;44.70
3548;DHT22;1788;49.400;11.092;2022-07-06T06:19:22;22.30;44.60
3548;DHT22;1788;49.400;11.092;2022-07-06T06:21:49;22.40;44.60
3548;DHT22;1788;49.400;11.092;2022-07-06T06:24:15;22.50;44.60
3548;DHT22;1788;49.400;11.092;2022-07-06T06:26:42;22.50;44.40
3548;DHT22;1788;49.400;11.092;2022-07-06T06:29:09;22.40;44.20
3548;DHT22;1788;49.400;11.092;2022-07-06T06:31:36;22.30;44.10
3548;DHT22;1788;49.400;11.092;2022-07-06T06:34:03;22.30;44.20
3548;DHT22;1788;49.400;11.092;2022-07-06T06:36:29;22.30;44.20
3548;DHT22;1788;49.400;11.092;2022-07-06T06:38:56;22.30;44.10
3548;DHT22;1788;49.400;11.092;2022-07-06T06:41:23;22.30;44.10
3548;DHT22;1788;49.400;11.092;2022-07-06T06:43:49;22.40;44.10
3548;DHT22;1788;49.400;11.092;2022-07-06T06:46:16;22.50;44.00
3548;DHT22;1788;49.400;11.092;2022-07-06T06:48:43;22.60;44.00
3548;DHT22;1788;49.400;11.092;2022-07-06T06:51:10;22.70;44.00
3548;DHT22;1788;49.400;11.092;2022-07-06T06:53:36;22.80;43.90
3548;DHT22;1788;49.400;11.092;2022-07-06T06:56:03;22.70;43.70
3548;DHT22;1788;49.400;11.092;2022-07-06T06:58:30;22.80;43.70
3548;DHT22;1788;49.400;11.092;2022-07-06T07:00:57;22.80;43.60
3548;DHT22;1788;49.400;11.092;2022-07-06T07:03:23;22.90;43.50
3548;DHT22;1788;49.400;11.092;2022-07-06T07:05:50;22.90;43.40
3548;DHT22;1788;49.400;11.092;2022-07-06T07:08:17;23.00;43.30
3548;DHT22;1788;49.400;11.092;2022-07-06T07:10:44;23.10;43.30
3548;DHT22;1788;49.400;11.092;2022-07-06T07:13:11;23.20;43.20
3548;DHT22;1788;49.400;11.092;2022-07-06T07:15:38;23.30;43.10
3548;DHT22;1788;49.400;11.092;2022-07-06T07:18:04;23.40;42.90
3548;DHT22;1788;49.400;11.092;2022-07-06T07:20:31;23.50;42.80
3548;DHT22;1788;49.400;11.092;2022-07-06T07:22:58;23.60;42.60
3548;DHT22;1788;49.400;11.092;2022-07-06T07:25:24;23.70;42.50
3548;DHT22;1788;49.400;11.092;2022-07-06T07:27:51;23.80;42.40
3548;DHT22;1788;49.400;11.092;2022-07-06T07:30:19;23.90;42.20
3548;DHT22;1788;49.400;11.092;2022-07-06T07:32:45;24.00;42.00
3548;DHT22;1788;49.400;11.092;2022-07-06T07:35:12;24.10;41.80
3548;DHT22;1788;49.400;11.092;2022-07-06T07:37:39;24.20;41.60
3548;DHT22;1788;49.400;11.092;2022-07-06T07:40:06;24.40;41.40
3548;DHT22;1788;49.400;11.092;2022-07-06T07:42:32;24.30;41.30
3548;DHT22;1788;49.400;11.092;2022-07-06T07:44:59;24.40;41.30
3548;DHT22;1788;49.400;11.092;2022-07-06T07:47:26;24.40;41.10
3548;DHT22;1788;49.400;11.092;2022-07-06T07:49:52;24.50;41.00
3548;DHT22;1788;49.400;11.092;2022-07-06T07:52:20;24.60;40.80
3548;DHT22;1788;49.400;11.092;2022-07-06T07:57:14;24.80;40.90
3548;DHT22;1788;49.400;11.092;2022-07-06T07:59:41;24.80;40.50
3548;DHT22;1788;49.400;11.092;2022-07-06T08:02:07;24.90;40.30
3548;DHT22;1788;49.400;11.092;2022-07-06T08:04:34;25.00;40.10
3548;DHT22;1788;49.400;11.092;2022-07-06T08:07:01;25.00;39.80
3548;DHT22;1788;49.400;11.092;2022-07-06T08:09:28;24.90;39.60
3548;DHT22;1788;49.400;11.092;2022-07-06T08:11:54;25.00;39.60
3548;DHT22;1788;49.400;11.092;2022-07-06T08:14:21;25.10;39.40
3548;DHT22;1788;49.400;11.092;2022-07-06T08:19:15;25.40;39.10
3548;DHT22;1788;49.400;11.092;2022-07-06T08:21:42;25.60;39.00
3548;DHT22;1788;49.400;11.092;2022-07-06T08:24:10;25.70;38.70
3548;DHT22;1788;49.400;11.092;2022-07-06T08:26:35;25.90;38.40
3548;DHT22;1788;49.400;11.092;2022-07-06T08:29:01;26.10;38.30
3548;DHT22;1788;49.400;11.092;2022-07-06T08:31:28;26.20;38.10
3548;DHT22;1788;49.400;11.092;2022-07-06T08:33:55;26.40;38.00
3548;DHT22;1788;49.400;11.092;2022-07-06T08:36:22;26.50;37.60
3548;DHT22;1788;49.400;11.092;2022-07-06T08:38:49;26.50;37.50
3548;DHT22;1788;49.400;11.092;2022-07-06T08:41:15;26.50;37.40
3548;DHT22;1788;49.400;11.092;2022-07-06T08:46:08;26.60;37.10
3548;DHT22;1788;49.400;11.092;2022-07-06T08:48:36;26.70;36.90
3548;DHT22;1788;49.400;11.092;2022-07-06T08:51:02;26.70;36.70
3548;DHT22;1788;49.400;11.092;2022-07-06T08:53:28;26.80;36.60
3548;DHT22;1788;49.400;11.092;2022-07-06T08:55:55;26.80;36.40
3548;DHT22;1788;49.400;11.092;2022-07-06T09:00:48;27.10;36.00
3548;DHT22;1788;49.400;11.092;2022-07-06T09:03:16;27.20;35.70
3548;DHT22;1788;49.400;11.092;2022-07-06T09:05:44;27.20;35.70
3548;DHT22;1788;49.400;11.092;2022-07-06T09:08:09;27.30;35.60
3548;DHT22;1788;49.400;11.092;2022-07-06T09:10:35;27.40;35.60
3548;DHT22;1788;49.400;11.092;2022-07-06T09:13:03;27.50;35.50
3548;DHT22;1788;49.400;11.092;2022-07-06T09:15:29;27.50;35.30
3548;DHT22;1788;49.400;11.092;2022-07-06T09:17:55;27.50;35.10
3548;DHT22;1788;49.400;11.092;2022-07-06T09:20:22;27.60;35.10
3548;DHT22;1788;49.400;11.092;2022-07-06T09:22:49;27.70;35.00
3548;DHT22;1788;49.400;11.092;2022-07-06T09:25:16;27.90;34.60
3548;DHT22;1788;49.400;11.092;2022-07-06T09:27:44;27.80;34.50
3548;DHT22;1788;49.400;11.092;2022-07-06T09:30:10;27.80;34.40
3548;DHT22;1788;49.400;11.092;2022-07-06T09:35:04;27.80;34.30
3548;DHT22;1788;49.400;11.092;2022-07-06T09:37:30;27.80;34.30
3548;DHT22;1788;49.400;11.092;2022-07-06T09:39:56;27.80;34.10
3548;DHT22;1788;49.400;11.092;2022-07-06T09:42:25;27.50;34.20
3548;DHT22;1788;49.400;11.092;2022-07-06T09:44:51;27.50;34.10
3548;DHT22;1788;49.400;11.092;2022-07-06T09:47:18;27.40;34.30
3548;DHT22;1788;49.400;11.092;2022-07-06T09:49:46;27.20;34.10
3548;DHT22;1788;49.400;11.092;2022-07-06T09:52:12;27.20;34.10
3548;DHT22;1788;49.400;11.092;2022-07-06T09:54:39;27.10;34.20
3548;DHT22;1788;49.400;11.092;2022-07-06T09:57:07;26.80;34.70
3548;DHT22;1788;49.400;11.092;2022-07-06T09:59:34;26.80;34.00
3548;DHT22;1788;49.400;11.092;2022-07-06T10:02:02;26.80;34.20
3548;DHT22;1788;49.400;11.092;2022-07-06T10:04:28;26.90;34.30
3548;DHT22;1788;49.400;11.092;2022-07-06T10:06:55;27.00;34.30
3548;DHT22;1788;49.400;11.092;2022-07-06T10:09:23;26.90;34.20
3548;DHT22;1788;49.400;11.092;2022-07-06T10:14:17;26.60;34.10
3548;DHT22;1788;49.400;11.092;2022-07-06T10:16:42;26.50;34.10
3548;DHT22;1788;49.400;11.092;2022-07-06T10:19:09;26.40;34.20
3548;DHT22;1788;49.400;11.092;2022-07-06T10:21:36;26.40;34.40
3548;DHT22;1788;49.400;11.092;2022-07-06T10:24:03;26.40;34.50
3548;DHT22;1788;49.400;11.092;2022-07-06T10:26:29;26.50;34.60
3548;DHT22;1788;49.400;11.092;2022-07-06T10:28:55;26.70;34.60
3548;DHT22;1788;49.400;11.092;2022-07-06T10:31:22;26.90;34.40
3548;DHT22;1788;49.400;11.092;2022-07-06T10:33:49;27.10;34.20
3548;DHT22;1788;49.400;11.092;2022-07-06T10:36:16;27.10;34.20
3548;DHT22;1788;49.400;11.092;2022-07-06T10:38:42;27.20;34.30
3548;DHT22;1788;49.400;11.092;2022-07-06T10:41:08;27.20;34.10
3548;DHT22;1788;49.400;11.092;2022-07-06T10:43:36;27.20;34.00
3548;DHT22;1788;49.400;11.092;2022-07-06T10:50:56;27.30;34.00
3548;DHT22;1788;49.400;11.092;2022-07-06T10:53:23;27.30;33.90
3548;DHT22;1788;49.400;11.092;2022-07-06T10:55:50;27.50;33.70
3548;DHT22;1788;49.400;11.092;2022-07-06T11:08:04;28.10;32.00
3548;DHT22;1788;49.400;11.092;2022-07-06T11:10:45;28.10;32.00
3548;DHT22;1788;49.400;11.092;2022-07-06T11:12:59;28.10;32.70
3548;DHT22;1788;49.400;11.092;2022-07-06T11:20:18;27.70;32.20
3548;DHT22;1788;49.400;11.092;2022-07-06T11:22:45;27.80;32.20
3548;DHT22;1788;49.400;11.092;2022-07-06T11:25:12;27.70;31.90
3548;DHT22;1788;49.400;11.092;2022-07-06T11:27:40;27.70;31.90
3548;DHT22;1788;49.400;11.092;2022-07-06T11:30:07;27.70;31.90
3548;DHT22;1788;49.400;11.092;2022-07-06T11:32:33;27.70;31.90
3548;DHT22;1788;49.400;11.092;2022-07-06T11:35:01;28.00;32.00
3548;DHT22;1788;49.400;11.092;2022-07-06T11:37:27;27.90;31.90
3548;DHT22;1788;49.400;11.092;2022-07-06T11:39:54;28.40;31.70
3548;DHT22;1788;49.400;11.092;2022-07-06T11:42:21;28.40;32.20
3548;DHT22;1788;49.400;11.092;2022-07-06T11:44:48;28.40;31.50
3548;DHT22;1788;49.400;11.092;2022-07-06T11:47:14;28.30;31.50
3548;DHT22;1788;49.400;11.092;2022-07-06T11:49:41;28.10;31.50
3548;DHT22;1788;49.400;11.092;2022-07-06T11:52:09;27.70;31.90
3548;DHT22;1788;49.400;11.092;2022-07-06T11:54:35;27.60;31.80
3548;DHT22;1788;49.400;11.092;2022-07-06T11:57:02;27.50;32.00
3548;DHT22;1788;49.400;11.092;2022-07-06T11:59:30;27.50;32.00
3548;DHT22;1788;49.400;11.092;2022-07-06T12:04:24;27.50;31.60
3548;DHT22;1788;49.400;11.092;2022-07-06T12:06:50;27.70;31.70
3548;DHT22;1788;49.400;11.092;2022-07-06T12:09:16;27.90;31.40
3548;DHT22;1788;49.400;11.092;2022-07-06T12:11:44;28.20;31.10
3548;DHT22;1788;49.400;11.092;2022-07-06T12:16:38;28.70;30.90
3548;DHT22;1788;49.400;11.092;2022-07-06T12:19:05;28.60;30.80
3548;DHT22;1788;49.400;11.092;2022-07-06T12:23:58;29.10;30.30
3548;DHT22;1788;49.400;11.092;2022-07-06T12:26:26;29.10;30.30
3548;DHT22;1788;49.400;11.092;2022-07-06T12:36:16;29.20;29.90
3548;DHT22;1788;49.400;11.092;2022-07-06T12:38:44;29.20;29.90
3548;DHT22;1788;49.400;11.092;2022-07-06T12:41:10;29.30;29.90
3548;DHT22;1788;49.400;11.092;2022-07-06T12:48:30;29.50;29.50
3548;DHT22;1788;49.400;11.092;2022-07-06T12:50:57;29.50;29.40
3548;DHT22;1788;49.400;11.092;2022-07-06T12:53:24;29.60;29.40
3548;DHT22;1788;49.400;11.092;2022-07-06T12:56:07;29.80;29.20
3548;DHT22;1788;49.400;11.092;2022-07-06T12:58:17;30.10;29.10
3548;DHT22;1788;49.400;11.092;2022-07-06T13:00:43;30.20;28.70
3548;DHT22;1788;49.400;11.092;2022-07-06T13:03:10;30.20;29.10
3548;DHT22;1788;49.400;11.092;2022-07-06T13:05:37;30.20;29.10
3548;DHT22;1788;49.400;11.092;2022-07-06T13:08:04;30.10;28.80
3548;DHT22;1788;49.400;11.092;2022-07-06T13:10:31;30.00;28.70
3548;DHT22;1788;49.400;11.092;2022-07-06T13:12:58;29.90;28.70
3548;DHT22;1788;49.400;11.092;2022-07-06T13:15:24;29.80;28.80
3548;DHT22;1788;49.400;11.092;2022-07-06T13:17:51;29.80;28.90
3548;DHT22;1788;49.400;11.092;2022-07-06T13:20:18;29.80;29.00
3548;DHT22;1788;49.400;11.092;2022-07-06T13:22:44;29.90;29.10
3548;DHT22;1788;49.400;11.092;2022-07-06T13:25:12;30.10;28.60
3548;DHT22;1788;49.400;11.092;2022-07-06T13:27:38;30.10;28.60
3548;DHT22;1788;49.400;11.092;2022-07-06T13:30:06;30.20;28.60
3548;DHT22;1788;49.400;11.092;2022-07-06T13:32:32;30.20;28.60
3548;DHT22;1788;49.400;11.092;2022-07-06T13:34:59;30.10;28.50
3548;DHT22;1788;49.400;11.092;2022-07-06T13:37:25;30.10;28.60
3548;DHT22;1788;49.400;11.092;2022-07-06T13:39:52;30.20;28.70
3548;DHT22;1788;49.400;11.092;2022-07-06T13:42:19;30.30;28.60
3548;DHT22;1788;49.400;11.092;2022-07-06T13:49:41;29.80;28.30
3548;DHT22;1788;49.400;11.092;2022-07-06T13:52:08;29.70;28.60
3548;DHT22;1788;49.400;11.092;2022-07-06T13:54:35;29.70;28.60
3548;DHT22;1788;49.400;11.092;2022-07-06T13:57:03;29.80;28.80
3548;DHT22;1788;49.400;11.092;2022-07-06T13:59:29;29.80;28.80
3548;DHT22;1788;49.400;11.092;2022-07-06T14:01:56;30.20;28.70
3548;DHT22;1788;49.400;11.092;2022-07-06T14:04:23;30.20;28.70
3548;DHT22;1788;49.400;11.092;2022-07-06T14:06:49;30.30;28.50
3548;DHT22;1788;49.400;11.092;2022-07-06T14:09:16;30.40;28.40
3548;DHT22;1788;49.400;11.092;2022-07-06T14:11:43;30.40;28.40
3548;DHT22;1788;49.400;11.092;2022-07-06T14:14:10;30.30;28.30
3548;DHT22;1788;49.400;11.092;2022-07-06T14:16:37;30.30;28.20
3548;DHT22;1788;49.400;11.092;2022-07-06T14:19:04;30.20;28.60
3548;DHT22;1788;49.400;11.092;2022-07-06T14:21:31;30.20;28.20
3548;DHT22;1788;49.400;11.092;2022-07-06T14:23:57;30.00;28.10
3548;DHT22;1788;49.400;11.092;2022-07-06T14:26:24;29.80;28.00
3548;DHT22;1788;49.400;11.092;2022-07-06T14:28:51;29.70;28.10
3548;DHT22;1788;49.400;11.092;2022-07-06T14:31:18;29.50;28.20
3548;DHT22;1788;49.400;11.092;2022-07-06T14:33:45;29.50;28.20
3548;DHT22;1788;49.400;11.092;2022-07-06T14:36:12;29.30;28.30
3548;DHT22;1788;49.400;11.092;2022-07-06T14:38:39;29.30;28.30
3548;DHT22;1788;49.400;11.092;2022-07-06T14:41:05;29.40;28.40
3548;DHT22;1788;49.400;11.092;2022-07-06T14:43:32;29.50;28.50
3548;DHT22;1788;49.400;11.092;2022-07-06T14:45:58;29.60;28.40
3548;DHT22;1788;49.400;11.092;2022-07-06T14:48:26;29.50;28.10
3548;DHT22;1788;49.400;11.092;2022-07-06T14:50:52;29.50;28.60
3548;DHT22;1788;49.400;11.092;2022-07-06T14:53:20;29.30;28.40
3548;DHT22;1788;49.400;11.092;2022-07-06T14:55:47;29.30;28.00
3548;DHT22;1788;49.400;11.092;2022-07-06T14:58:14;29.20;27.90
3548;DHT22;1788;49.400;11.092;2022-07-06T15:00:40;29.10;27.90
3548;DHT22;1788;49.400;11.092;2022-07-06T15:03:07;29.10;28.00
3548;DHT22;1788;49.400;11.092;2022-07-06T15:05:34;29.20;28.10
3548;DHT22;1788;49.400;11.092;2022-07-06T15:08:00;29.30;28.10
3548;DHT22;1788;49.400;11.092;2022-07-06T15:10:27;29.40;28.10
3548;DHT22;1788;49.400;11.092;2022-07-06T15:12:53;29.30;28.00
3548;DHT22;1788;49.400;11.092;2022-07-06T15:15:20;29.40;28.10
3548;DHT22;1788;49.400;11.092;2022-07-06T15:17:47;29.30;28.00
3548;DHT22;1788;49.400;11.092;2022-07-06T15:20:14;29.10;28.00
3548;DHT22;1788;49.400;11.092;2022-07-06T15:22:41;29.10;28.00
3548;DHT22;1788;49.400;11.092;2022-07-06T15:27:34;28.80;28.20
3548;DHT22;1788;49.400;11.092;2022-07-06T15:30:01;28.50;28.20
3548;DHT22;1788;49.400;11.092;2022-07-06T15:32:28;28.00;28.50
3548;DHT22;1788;49.400;11.092;2022-07-06T15:34:54;28.00;28.50
3548;DHT22;1788;49.400;11.092;2022-07-06T15:37:22;28.00;28.70
3548;DHT22;1788;49.400;11.092;2022-07-06T15:39:48;28.00;28.60
3548;DHT22;1788;49.400;11.092;2022-07-06T15:42:15;28.10;28.70
3548;DHT22;1788;49.400;11.092;2022-07-06T15:44:42;28.20;28.20
3548;DHT22;1788;49.400;11.092;2022-07-06T15:47:09;28.30;28.60
3548;DHT22;1788;49.400;11.092;2022-07-06T15:49:36;28.20;28.50
3548;DHT22;1788;49.400;11.092;2022-07-06T15:52:03;28.30;28.50
3548;DHT22;1788;49.400;11.092;2022-07-06T15:54:29;28.30;28.50
3548;DHT22;1788;49.400;11.092;2022-07-06T15:56:56;28.40;28.50
3548;DHT22;1788;49.400;11.092;2022-07-06T15:59:23;28.40;28.40
3548;DHT22;1788;49.400;11.092;2022-07-06T16:01:49;28.40;28.40
3548;DHT22;1788;49.400;11.092;2022-07-06T16:04:17;28.50;28.40
3548;DHT22;1788;49.400;11.092;2022-07-06T16:06:43;28.50;28.40
3548;DHT22;1788;49.400;11.092;2022-07-06T16:09:10;28.50;28.30
3548;DHT22;1788;49.400;11.092;2022-07-06T16:11:36;28.50;28.20
3548;DHT22;1788;49.400;11.092;2022-07-06T16:14:03;28.40;28.20
3548;DHT22;1788;49.400;11.092;2022-07-06T16:16:30;28.40;28.30
3548;DHT22;1788;49.400;11.092;2022-07-06T16:18:56;28.40;28.30
3548;DHT22;1788;49.400;11.092;2022-07-06T16:21:24;28.30;28.30
3548;DHT22;1788;49.400;11.092;2022-07-06T16:23:50;28.30;28.30
3548;DHT22;1788;49.400;11.092;2022-07-06T16:26:17;28.20;28.20
3548;DHT22;1788;49.400;11.092;2022-07-06T16:28:43;28.20;28.20
3548;DHT22;1788;49.400;11.092;2022-07-06T16:31:10;28.10;28.20
3548;DHT22;1788;49.400;11.092;2022-07-06T16:33:37;28.00;28.10
3548;DHT22;1788;49.400;11.092;2022-07-06T16:36:04;27.90;28.10
3548;DHT22;1788;49.400;11.092;2022-07-06T16:38:30;27.70;28.10
3548;DHT22;1788;49.400;11.092;2022-07-06T16:40:57;27.60;28.10
3548;DHT22;1788;49.400;11.092;2022-07-06T16:43:24;27.30;28.10